Time;durP1;ratioP1;P1;durP2;ratioP2;P2;SDS_P1;SDS_P2;PMS_P1;PMS_P2;Temp;Humidity;BMP_temperature;BMP_pressure;BME280_temperature;BME280_humidity;BME280_pressure;Samples;Min_cycle;Max_cycle;Signal;HPM_P1;HPM_P2
2022/07/02 00:00:59;;;;;;;10.60;9.60;;;;;;;20.70;78.79;98671.00;106574;1280;138480;-85
2022/07/02 00:03:36;;;;;;;11.60;10.00;;;;;;;20.70;78.71;98671.38;106585;1281;23942;-85
2022/07/02 00:06:05;;;;;;;10.30;8.90;;;;;;;20.68;78.69;98679.05;106917;1280;24215;-83
2022/07/02 00:08:32;;;;;;;12.30;10.10;;;;;;;20.67;78.62;98681.00;107234;1280;137633;-85
2022/07/02 00:11:00;;;;;;;10.10;9.20;;;;;;;20.65;78.53;98678.77;106921;1280;23362;-85
2022/07/02 00:13:27;;;;;;;9.30;8.50;;;;;;;20.61;78.41;98673.63;106785;1280;138135;-83
2022/07/02 00:15:55;;;;;;;8.60;7.80;;;;;;;20.56;78.17;98655.14;106349;1283;23430;-83
2022/07/02 00:18:25;;;;;;;9.00;8.10;;;;;;;20.49;78.33;98660.40;106564;1281;25256;-83
2022/07/02 00:20:51;;;;;;;;;;;;;;;20.44;78.31;98665.53;106173;1281;137857;-85
2022/07/02 00:23:34;;;;;;;10.00;9.00;;;;;;;20.40;78.48;98671.97;106445;1280;22566;-84
2022/07/02 00:26:08;;;;;;;10.20;9.30;;;;;;;20.37;78.38;98669.46;106029;1281;138342;-84
2022/07/02 00:28:41;;;;;;;10.50;9.50;;;;;;;20.31;78.44;98671.50;106570;1281;22594;-84
2022/07/02 00:31:07;;;;;;;12.00;9.50;;;;;;;20.28;78.63;98675.77;106846;1281;138043;-83
2022/07/02 00:33:35;;;;;;;12.70;10.00;;;;;;;20.27;78.53;98683.75;106439;1281;23295;-86
2022/07/02 00:36:03;;;;;;;11.50;10.30;;;;;;;20.26;78.59;98689.04;106145;1283;30427;-82
2022/07/02 00:38:30;;;;;;;12.10;10.60;;;;;;;20.24;78.63;98689.22;106303;1281;138417;-82
2022/07/02 00:40:59;;;;;;;12.80;11.20;;;;;;;20.24;78.55;98694.21;106300;1284;22610;-83
2022/07/02 00:43:26;;;;;;;15.50;12.20;;;;;;;20.22;78.47;98695.91;106446;1281;137644;-83
2022/07/02 00:45:56;;;;;;;14.10;12.30;;;;;;;20.20;78.60;98691.63;106629;1279;25372;-84
2022/07/02 00:48:23;;;;;;;12.90;11.60;;;;;;;20.18;78.48;98687.16;106600;1279;22579;-82
2022/07/02 00:50:51;;;;;;;12.00;10.90;;;;;;;20.17;78.42;98678.56;106544;1280;138294;-83
2022/07/02 00:53:17;;;;;;;12.00;10.70;;;;;;;20.21;78.39;98676.60;106446;1281;25312;-83
2022/07/02 00:55:44;;;;;;;13.00;11.70;;;;;;;20.24;78.33;98672.91;106669;1281;137938;-83
2022/07/02 00:58:10;;;;;;;13.70;12.30;;;;;;;20.25;78.13;98667.46;106391;1278;23414;-83
2022/07/02 01:00:37;;;;;;;13.80;12.40;;;;;;;20.28;78.12;98665.91;106471;1278;137871;-83
2022/07/02 01:03:04;;;;;;;11.90;10.60;;;;;;;20.28;77.99;98653.80;106336;1280;22542;-84
2022/07/02 01:05:31;;;;;;;12.60;11.40;;;;;;;20.30;78.04;98649.63;106434;1281;23308;-85
2022/07/02 01:10:44;;;;;;;12.60;10.90;;;;;;;20.31;77.94;98637.27;106323;1281;23959;-83
2022/07/02 01:13:11;;;;;;;15.70;12.00;;;;;;;20.31;77.92;98628.81;106181;1281;138094;-83
2022/07/02 01:15:39;;;;;;;12.40;10.40;;;;;;;20.33;78.08;98620.09;106581;1280;22590;-83
2022/07/02 01:18:06;;;;;;;11.10;10.00;;;;;;;20.38;78.08;98623.60;106155;1281;22553;-83
2022/07/02 01:20:32;;;;;;;12.50;10.20;;;;;;;20.39;77.79;98626.56;106290;1281;138646;-84
2022/07/02 01:22:59;;;;;;;10.30;9.40;;;;;;;20.39;77.68;98628.61;106635;1280;22704;-83
2022/07/02 01:25:25;;;;;;;12.20;10.90;;;;;;;20.41;77.50;98642.77;106759;1278;137758;-83
2022/07/02 01:27:53;;;;;;;12.10;11.00;;;;;;;20.40;77.38;98648.56;106474;1280;22548;-84
2022/07/02 01:30:26;;;;;;;13.50;12.20;;;;;;;20.37;77.29;98656.27;106430;1281;22550;-83
2022/07/02 01:32:52;;;;;;;14.00;12.40;;;;;;;20.34;77.40;98670.65;106526;1280;137744;-83
2022/07/02 01:35:18;;;;;;;15.50;13.90;;;;;;;20.33;77.33;98686.20;106899;1279;22570;-85
2022/07/02 01:37:49;;;;;;;;;;;;;;;20.27;77.11;98691.27;106536;1281;138176;-83
2022/07/02 01:40:15;;;;;;;14.40;13.00;;;;;;;20.22;77.27;98691.59;106471;1281;22699;-83
2022/07/02 01:42:41;;;;;;;14.60;13.00;;;;;;;20.17;77.38;98696.20;106571;1281;137976;-86
2022/07/02 01:45:10;;;;;;;19.60;17.00;;;;;;;20.07;77.44;98697.54;106342;1281;22592;-84
2022/07/02 01:47:36;;;;;;;21.90;17.80;;;;;;;19.92;77.64;98696.95;106620;1281;22596;-84
2022/07/02 01:50:06;;;;;;;19.90;17.30;;;;;;;19.75;77.92;98701.02;106862;1279;138129;-83
2022/07/02 01:52:51;;;;;;;22.90;16.60;;;;;;;19.62;78.35;98698.64;106399;1284;24394;-84
2022/07/02 01:55:18;;;;;;;21.30;17.10;;;;;;;19.49;78.64;98696.30;106053;1284;138608;-85
2022/07/02 01:57:44;;;;;;;21.60;16.70;;;;;;;19.40;79.12;98690.95;106368;1283;22729;-85
2022/07/02 02:00:12;;;;;;;23.80;17.60;;;;;;;19.38;79.23;98687.48;106847;1282;23171;-84
2022/07/02 02:02:39;;;;;;;25.00;19.10;;;;;;;19.38;79.43;98692.62;105982;1284;137932;-84
2022/07/02 02:05:06;;;;;;;24.30;19.60;;;;;;;19.34;79.55;98693.08;106350;1281;24384;-84
2022/07/02 02:07:32;;;;;;;25.90;21.20;;;;;;;19.28;79.66;98688.95;106116;1284;138333;-83
2022/07/02 02:10:13;;;;;;;27.00;19.40;;;;;;;19.23;80.05;98693.82;106031;1284;22621;-85
2022/07/02 02:12:41;;;;;;;26.30;20.80;;;;;;;19.16;80.09;98699.66;106438;1283;138320;-84
2022/07/02 02:15:11;;;;;;;24.90;19.90;;;;;;;19.10;80.44;98707.67;106344;1284;22632;-85
2022/07/02 02:17:37;;;;;;;;;;;;;;;19.11;80.63;98718.54;106455;1283;22529;-86
2022/07/02 02:20:03;;;;;;;29.60;21.30;;;;;;;19.07;80.76;98718.20;105993;1283;124434;-84
2022/07/02 02:22:30;;;;;;;28.10;22.40;;;;;;;19.01;80.81;98724.02;106349;1283;23318;-85
2022/07/02 02:24:56;;;;;;;30.30;22.60;;;;;;;18.95;81.07;98721.50;106042;1281;138231;-84
2022/07/02 02:27:22;;;;;;;30.30;22.70;;;;;;;18.90;81.32;98723.98;106670;1279;22667;-83
2022/07/02 02:29:49;;;;;;;25.60;21.10;;;;;;;18.87;81.31;98734.27;106649;1280;22566;-85
2022/07/02 02:32:16;;;;;;;28.10;21.40;;;;;;;18.82;81.55;98741.33;106504;1280;138432;-84
2022/07/02 02:34:42;;;;;;;26.20;20.90;;;;;;;18.76;81.73;98741.88;106397;1280;22553;-83
2022/07/02 02:37:08;;;;;;;24.90;19.00;;;;;;;18.75;81.94;98741.05;106313;1280;138506;-83
2022/07/02 02:39:35;;;;;;;32.30;23.20;;;;;;;18.75;81.84;98740.27;106520;1279;23341;-82
2022/07/02 02:42:01;;;;;;;33.90;24.90;;;;;;;18.73;81.93;98738.14;106830;1279;23050;-83
2022/07/02 02:44:29;;;;;;;35.20;25.30;;;;;;;18.74;82.09;98746.09;106111;1280;138039;-84
2022/07/02 02:46:58;;;;;;;33.30;23.30;;;;;;;18.73;82.14;98748.48;106624;1280;22676;-84
2022/07/02 02:49:24;;;;;;;36.60;23.70;;;;;;;18.72;82.11;98755.98;106511;1277;138589;-83
2022/07/02 02:51:52;;;;;;;29.90;21.90;;;;;;;18.71;82.20;98764.38;106339;1280;22613;-84
2022/07/02 02:54:18;;;;;;;30.20;22.60;;;;;;;18.68;82.13;98763.91;106461;1280;22615;-84
2022/07/02 02:56:47;;;;;;;30.40;21.40;;;;;;;18.66;82.25;98766.74;106278;1277;139337;-82
2022/07/02 02:59:13;;;;;;;31.00;21.40;;;;;;;18.61;82.29;98773.46;106351;1279;22563;-83
2022/07/02 03:01:39;;;;;;;31.90;22.80;;;;;;;18.58;82.50;98774.15;106139;1279;138760;-82
2022/07/02 03:04:06;;;;;;;28.00;20.90;;;;;;;18.57;82.71;98776.27;106547;1279;22691;-85
2022/07/02 03:06:34;;;;;;;27.70;21.40;;;;;;;18.51;82.68;98773.50;106260;1279;22571;-83
2022/07/02 03:09:01;;;;;;;36.90;24.60;;;;;;;18.41;82.85;98775.91;106541;1280;137777;-84
2022/07/02 03:11:28;;;;;;;30.80;23.70;;;;;;;18.31;83.10;98779.23;106900;1280;23247;-83
2022/07/02 03:14:09;;;;;;;27.30;22.30;;;;;;;18.27;83.36;98782.52;106247;1280;138931;-83
2022/07/02 03:16:35;;;;;;;30.40;23.30;;;;;;;18.24;83.34;98784.81;106665;1280;22606;-83
2022/07/02 03:19:02;;;;;;;37.90;24.70;;;;;;;18.20;83.68;98785.67;106057;1279;138897;-83
2022/07/02 03:21:28;;;;;;;28.30;23.00;;;;;;;18.12;84.13;98780.98;106205;1279;22688;-83
2022/07/02 03:23:55;;;;;;;28.60;22.10;;;;;;;18.02;84.02;98781.27;106342;1278;25340;-85
2022/07/02 03:26:21;;;;;;;24.10;17.30;;;;;;;17.92;84.33;98781.07;106832;1279;139338;-83
2022/07/02 03:28:47;;;;;;;20.80;16.50;;;;;;;17.82;84.63;98778.29;106489;1280;22730;-86
2022/07/02 03:31:13;;;;;;;21.20;14.80;;;;;;;17.76;84.67;98784.66;106377;1280;138351;-85
2022/07/02 03:33:40;;;;;;;17.80;15.10;;;;;;;17.68;84.82;98783.89;106277;1280;25401;-83
2022/07/02 03:36:06;;;;;;;17.70;13.20;;;;;;;17.61;84.84;98783.24;106464;1280;22581;-85
2022/07/02 03:38:32;;;;;;;13.20;11.80;;;;;;;17.56;84.68;98793.30;106402;1279;138276;-85
2022/07/02 03:40:58;;;;;;;13.50;11.90;;;;;;;17.54;84.58;98795.52;106571;1279;22576;-84
2022/07/02 03:43:24;;;;;;;12.00;10.00;;;;;;;17.55;84.45;98798.88;106244;1279;138526;-84
2022/07/02 03:45:51;;;;;;;12.80;11.30;;;;;;;17.55;84.46;98805.59;106209;1279;22776;-82
2022/07/02 03:48:17;;;;;;;10.90;9.80;;;;;;;17.54;84.31;98817.05;106439;1279;22634;-83
2022/07/02 03:50:43;;;;;;;10.90;9.80;;;;;;;17.53;84.33;98828.35;106425;1277;138445;-85
2022/07/02 03:53:09;;;;;;;10.70;8.30;;;;;;;17.54;83.90;98825.54;106688;1280;25266;-83
2022/07/02 03:55:36;;;;;;;8.10;7.30;;;;;;;17.53;83.47;98828.89;106369;1280;138123;-83
2022/07/02 03:58:02;;;;;;;8.40;7.40;;;;;;;17.51;83.45;98841.02;106778;1277;22591;-84
2022/07/02 04:00:29;;;;;;;10.20;8.80;;;;;;;17.54;83.52;98855.88;106714;1279;22707;-82
2022/07/02 04:02:55;;;;;;;11.40;8.70;;;;;;;17.58;83.50;98858.89;106326;1279;138059;-86
2022/07/02 04:05:21;;;;;;;9.90;8.20;;;;;;;17.63;83.33;98858.80;106244;1280;24416;-85
2022/07/02 04:07:48;;;;;;;10.80;9.70;;;;;;;17.64;82.96;98855.95;106273;1279;137060;-86
2022/07/02 04:10:15;;;;;;;8.90;7.50;;;;;;;17.61;82.79;98848.13;106674;1280;23708;-83
2022/07/02 04:12:41;;;;;;;8.90;8.00;;;;;;;17.59;82.69;98854.96;106299;1280;138176;-83
2022/07/02 04:15:07;;;;;;;9.00;8.10;;;;;;;17.60;82.91;98863.17;106425;1280;22802;-83
2022/07/02 04:17:34;;;;;;;7.40;6.80;;;;;;;17.62;82.76;98865.93;106461;1280;22608;-83
2022/07/02 04:20:00;;;;;;;7.50;6.80;;;;;;;17.63;82.84;98861.58;106019;1279;138351;-85
2022/07/02 04:22:28;;;;;;;7.60;6.80;;;;;;;17.62;82.67;98860.52;106436;1279;24235;-82
2022/07/02 04:24:54;;;;;;;8.90;8.00;;;;;;;17.62;82.78;98866.04;106471;1279;137817;-83
2022/07/02 04:27:35;;;;;;;7.00;6.30;;;;;;;17.64;82.91;98866.62;106231;1279;22590;-82
2022/07/02 04:30:02;;;;;;;8.00;6.10;;;;;;;17.65;82.93;98872.80;106155;1280;22550;-84
2022/07/02 04:32:29;;;;;;;9.60;7.00;;;;;;;17.62;82.81;98874.57;106200;1279;138083;-83
2022/07/02 04:34:55;;;;;;;7.40;6.50;;;;;;;17.65;83.19;98873.56;106373;1280;22743;-84
2022/07/02 04:37:21;;;;;;;7.90;6.80;;;;;;;17.72;83.25;98875.36;106347;1280;138022;-84
2022/07/02 04:39:47;;;;;;;8.40;6.00;;;;;;;17.76;83.20;98871.70;106397;1279;535310;-84
2022/07/02 04:42:13;;;;;;;7.90;6.50;;;;;;;17.79;82.80;98871.69;106913;1278;25466;-84
2022/07/02 04:44:40;;;;;;;7.10;6.40;;;;;;;17.77;82.73;98870.93;106600;1280;137535;-87
2022/07/02 04:47:06;;;;;;;7.50;6.50;;;;;;;17.76;82.83;98867.17;106660;1279;22861;-84
2022/07/02 04:49:32;;;;;;;7.20;6.50;;;;;;;17.75;82.95;98871.05;106384;1280;137458;-88
2022/07/02 04:51:59;;;;;;;6.10;5.50;;;;;;;17.74;82.99;98871.73;106299;1280;22609;-88
2022/07/02 04:54:26;;;;;;;6.40;5.80;;;;;;;17.73;82.71;98878.44;106501;1280;24272;-88
2022/07/02 04:56:53;;;;;;;6.30;5.70;;;;;;;17.69;82.62;98871.24;106298;1280;137755;-91
2022/07/02 04:59:19;;;;;;;8.60;6.60;;;;;;;17.69;82.89;98879.02;106057;1279;23502;-88
2022/07/02 05:01:48;;;;;;;6.90;5.90;;;;;;;17.69;82.93;98878.45;106459;1279;137895;-87
2022/07/02 05:04:14;;;;;;;8.20;7.20;;;;;;;17.67;83.09;98882.98;106407;1279;23387;-89
2022/07/02 05:06:41;;;;;;;8.70;7.90;;;;;;;17.69;83.45;98879.77;106173;1280;137311;-90
2022/07/02 05:09:07;;;;;;;8.70;7.50;;;;;;;17.75;83.49;98877.67;106183;1280;23979;-90
2022/07/02 05:11:33;;;;;;;7.60;6.90;;;;;;;17.81;83.60;98883.27;106291;1280;23193;-88
2022/07/02 05:14:00;;;;;;;8.60;7.00;;;;;;;17.88;83.76;98885.40;106377;1277;138003;-81
2022/07/02 05:16:26;;;;;;;8.30;7.50;;;;;;;18.09;84.02;98890.60;106389;1280;24092;-83
2022/07/02 05:18:53;;;;;;;7.50;6.80;;;;;;;18.20;82.46;98893.61;106071;1280;137475;-89
2022/07/02 05:21:19;;;;;;;7.60;6.90;;;;;;;18.24;81.84;98896.69;106137;1279;22553;-89
2022/07/02 05:23:46;;;;;;;6.50;5.90;;;;;;;18.21;81.30;98899.73;106106;1279;22672;-87
2022/07/02 05:26:14;;;;;;;6.20;5.30;;;;;;;18.18;80.98;98904.55;106324;1279;138016;-91
2022/07/02 05:28:43;;;;;;;6.00;5.50;;;;;;;18.12;80.52;98908.05;106374;1279;25410;-88
2022/07/02 05:31:09;;;;;;;5.70;5.10;;;;;;;18.07;80.55;98907.36;106799;1279;137966;-86
2022/07/02 05:33:36;;;;;;;8.40;6.40;;;;;;;18.01;80.74;98906.63;106584;1280;22610;-86
2022/07/02 05:36:02;;;;;;;5.90;5.30;;;;;;;17.99;81.07;98911.14;106412;1280;22582;-91
2022/07/02 05:38:29;;;;;;;5.70;5.20;;;;;;;17.97;81.10;98922.58;106273;1280;138025;-87
2022/07/02 05:40:55;;;;;;;5.00;4.60;;;;;;;17.97;81.05;98922.95;106469;1277;22558;-85
2022/07/02 05:43:21;;;;;;;5.90;5.10;;;;;;;17.97;81.01;98925.91;106384;1279;138277;-85
2022/07/02 05:45:48;;;;;;;6.80;5.10;;;;;;;17.99;80.90;98928.40;106606;1279;22669;-85
2022/07/02 05:48:14;;;;;;;10.50;6.70;;;;;;;18.01;81.06;98932.09;106335;1279;23328;-85
2022/07/02 05:50:41;;;;;;;10.00;7.80;;;;;;;18.04;81.07;98936.31;106139;1279;137246;-86
2022/07/02 05:53:07;;;;;;;11.80;8.70;;;;;;;18.10;81.19;98938.21;106516;1277;25356;-85
2022/07/02 05:55:33;;;;;;;11.30;9.50;;;;;;;18.19;81.16;98941.59;106323;1277;138215;-85
2022/07/02 05:57:59;;;;;;;13.90;12.40;;;;;;;18.28;81.27;98944.64;107000;1280;23411;-84
2022/07/02 06:00:26;;;;;;;15.20;13.20;;;;;;;18.35;80.72;98947.95;106752;1279;22570;-84
2022/07/02 06:02:52;;;;;;;17.20;13.60;;;;;;;18.36;80.26;98946.97;105697;1279;137673;-84
2022/07/02 06:07:59;;;;;;;16.70;13.70;;;;;;;18.38;80.27;98958.53;105775;1278;138220;-84
2022/07/02 06:10:25;;;;;;;15.80;13.00;;;;;;;18.39;80.35;98967.52;106234;1279;22573;-85
2022/07/02 06:12:52;;;;;;;24.30;14.60;;;;;;;18.42;80.33;98971.75;106558;1280;138565;-84
2022/07/02 06:15:20;;;;;;;16.30;13.80;;;;;;;18.43;80.12;98973.06;106208;1280;25379;-85
2022/07/02 06:17:47;;;;;;;9.60;8.60;;;;;;;18.42;79.99;98975.22;106587;1280;25359;-85
2022/07/02 06:20:14;;;;;;;6.30;5.40;;;;;;;18.34;79.13;98976.48;106315;1280;137589;-85
2022/07/02 06:22:41;;;;;;;7.50;6.20;;;;;;;18.24;79.15;98982.20;106345;1279;22566;-86
2022/07/02 06:25:08;;;;;;;6.20;5.60;;;;;;;18.17;79.46;98985.06;106911;1278;138022;-86
2022/07/02 06:27:35;;;;;;;6.60;5.80;;;;;;;18.10;80.05;98990.53;106564;1279;25471;-88
2022/07/02 06:30:08;;;;;;;5.70;5.00;;;;;;;18.04;80.72;98995.13;106672;1279;24276;-93
2022/07/02 06:32:38;;;;;;;5.90;5.30;;;;;;;17.94;81.37;99002.33;106752;1280;137544;-91
2022/07/02 06:35:05;;;;;;;5.20;4.20;;;;;;;17.89;81.72;99007.96;107149;1277;23287;-89
2022/07/02 06:37:32;;;;;;;4.70;4.00;;;;;;;17.80;82.09;99009.98;106567;1280;137942;-90
2022/07/02 06:39:58;;;;;;;4.20;3.80;;;;;;;17.74;82.39;99017.94;107109;1280;24372;-91
2022/07/02 06:42:37;;;;;;;4.00;3.70;;;;;;;17.71;82.34;99018.05;107429;1277;22551;-91
2022/07/02 06:45:11;;;;;;;9.20;5.60;;;;;;;17.68;82.59;99018.45;107231;1279;22548;-92
2022/07/02 06:47:54;;;;;;;9.50;6.90;;;;;;;17.68;82.81;99020.81;107331;1279;22710;-93
2022/07/02 06:50:27;;;;;;;8.60;7.70;;;;;;;17.68;82.85;99023.07;107138;1277;138007;-92
2022/07/02 06:53:25;;;;;;;10.50;8.00;;;;;;;17.68;83.13;99035.48;107730;1277;25618;-94
2022/07/02 06:55:53;;;;;;;7.20;6.20;;;;;;;17.74;83.40;99037.22;107179;1280;138608;-92
2022/07/02 06:58:20;;;;;;;;;;;;;;;17.82;83.27;99037.60;107390;1280;22522;-90
2022/07/02 07:00:47;;;;;;;7.40;6.70;;;;;;;17.91;83.28;99035.69;107107;1280;124508;-91
2022/07/02 07:03:16;;;;;;;7.40;6.60;;;;;;;17.97;83.10;99041.19;107359;1279;22603;-89
2022/07/02 07:05:46;;;;;;;7.90;6.10;;;;;;;17.99;82.77;99039.79;106677;1279;22592;-89
2022/07/02 07:08:13;;;;;;;6.30;5.80;;;;;;;18.00;82.55;99041.17;106773;1279;138556;-90
2022/07/02 07:10:40;;;;;;;5.90;5.30;;;;;;;18.06;83.10;99037.02;107213;1279;25568;-85
2022/07/02 07:13:06;;;;;;;7.30;5.50;;;;;;;18.22;82.53;99040.23;106640;1277;137790;-83
2022/07/02 07:15:33;;;;;;;5.70;4.90;;;;;;;18.25;81.51;99041.27;107235;1277;22685;-86
2022/07/02 07:17:59;;;;;;;8.00;6.50;;;;;;;18.17;81.21;99042.71;106850;1277;25405;-84
2022/07/02 07:20:29;;;;;;;7.60;6.80;;;;;;;18.09;81.81;99048.42;106523;1277;137422;-83
2022/07/02 07:22:56;;;;;;;14.80;13.00;;;;;;;18.10;82.66;99051.56;106673;1279;23930;-85
2022/07/02 07:25:23;;;;;;;15.20;12.60;;;;;;;18.11;82.82;99048.85;106710;1280;138467;-83
2022/07/02 07:27:49;;;;;;;15.70;13.90;;;;;;;18.15;82.93;99056.55;106861;1279;25370;-85
2022/07/02 07:30:15;;;;;;;23.20;14.50;;;;;;;18.19;82.99;99055.72;106774;1279;22612;-86
2022/07/02 07:32:42;;;;;;;16.00;13.40;;;;;;;18.23;82.85;99059.68;106525;1280;137585;-84
2022/07/02 07:35:09;;;;;;;20.80;14.60;;;;;;;18.25;82.96;99063.15;106997;1280;22768;-86
2022/07/02 07:37:36;;;;;;;13.00;11.30;;;;;;;18.26;82.63;99073.08;106399;1280;138531;-86
2022/07/02 07:40:07;;;;;;;12.70;9.80;;;;;;;18.27;82.39;99072.03;106818;1277;22607;-83
2022/07/02 07:42:33;;;;;;;11.30;8.90;;;;;;;18.25;82.09;99076.44;106924;1279;22555;-85
2022/07/02 07:45:00;;;;;;;8.00;7.20;;;;;;;18.20;81.75;99073.20;106363;1279;137515;-83
2022/07/02 07:47:26;;;;;;;6.90;6.20;;;;;;;18.19;81.88;99074.36;106814;1278;22738;-84
2022/07/02 07:49:52;;;;;;;5.80;5.30;;;;;;;18.16;81.32;99076.84;105994;1279;139032;-85
2022/07/02 07:52:18;;;;;;;5.50;4.90;;;;;;;18.12;81.02;99083.52;106124;1279;24270;-83
2022/07/02 07:54:44;;;;;;;6.50;4.50;;;;;;;18.08;80.89;99089.54;106116;1279;22725;-84
2022/07/02 07:57:10;;;;;;;7.10;5.20;;;;;;;18.03;80.97;99090.94;106318;1280;24204;-85
2022/07/02 07:59:37;;;;;;;5.90;5.30;;;;;;;17.97;80.27;99092.44;106293;1280;22590;-77
2022/07/02 08:02:03;;;;;;;5.70;4.90;;;;;;;17.92;80.65;99090.52;106204;1280;138133;-78
2022/07/02 08:04:44;;;;;;;6.50;5.00;;;;;;;17.85;80.27;99096.63;105828;1279;23975;-78
2022/07/02 08:07:10;;;;;;;5.50;5.00;;;;;;;17.79;80.49;99101.95;105765;1279;137736;-78
2022/07/02 08:09:36;;;;;;;5.30;4.50;;;;;;;17.74;80.78;99104.55;105901;1279;25383;-78
2022/07/02 08:12:04;;;;;;;6.70;5.30;;;;;;;17.63;80.75;99101.97;106051;1281;23433;-77
2022/07/02 08:14:30;;;;;;;8.70;5.00;;;;;;;17.62;80.77;99103.45;105994;1280;139107;-78
2022/07/02 08:16:56;;;;;;;5.30;4.60;;;;;;;17.60;81.09;99104.39;106026;1280;26675;-79
2022/07/02 08:19:23;;;;;;;5.20;4.60;;;;;;;17.63;81.09;99105.87;105784;1280;138151;-80
2022/07/02 08:21:49;;;;;;;6.50;4.90;;;;;;;17.68;81.05;99107.14;105866;1278;22618;-78
2022/07/02 08:24:15;;;;;;;5.00;4.50;;;;;;;17.77;81.14;99108.14;105837;1280;22566;-79
2022/07/02 08:26:56;;;;;;;5.50;4.70;;;;;;;17.98;80.87;99104.28;105836;1280;137391;-79
2022/07/02 08:29:22;;;;;;;7.10;4.20;;;;;;;18.14;80.32;99107.95;106081;1280;22904;-78
2022/07/02 08:31:48;;;;;;;4.20;3.80;;;;;;;18.28;79.90;99109.34;106014;1280;137943;-78
2022/07/02 08:34:14;;;;;;;5.90;4.40;;;;;;;18.43;79.27;99108.36;105907;1280;22557;-78
2022/07/02 08:36:41;;;;;;;5.60;4.40;;;;;;;18.58;78.75;99103.30;106070;1280;22614;-79
2022/07/02 08:39:07;;;;;;;4.20;3.90;;;;;;;18.71;78.10;99102.41;106141;1280;137045;-78
2022/07/02 08:41:34;;;;;;;4.50;4.10;;;;;;;18.74;77.21;99107.31;106216;1280;24316;-78
2022/07/02 08:44:05;;;;;;;6.00;4.00;;;;;;;18.75;76.99;99114.36;105583;1280;138462;-77
2022/07/02 08:46:36;;;;;;;5.30;4.80;;;;;;;18.74;76.91;99114.27;106112;1280;22582;-77
2022/07/02 08:49:03;;;;;;;5.80;4.50;;;;;;;18.78;76.88;99115.30;106029;1280;137442;-78
2022/07/02 08:51:30;;;;;;;5.40;3.90;;;;;;;18.78;76.39;99117.60;105680;1280;22567;-78
2022/07/02 08:53:58;;;;;;;5.60;4.00;;;;;;;18.78;76.61;99118.77;105750;1280;25334;-79
2022/07/02 08:56:26;;;;;;;4.10;3.50;;;;;;;18.81;76.73;99123.52;105952;1280;137936;-78
2022/07/02 08:58:54;;;;;;;3.80;3.50;;;;;;;18.87;76.53;99124.01;106086;1279;22556;-77
2022/07/02 09:01:21;;;;;;;4.30;3.90;;;;;;;18.88;76.26;99124.28;105853;1280;137797;-78
2022/07/02 09:03:51;;;;;;;4.10;3.60;;;;;;;18.88;76.12;99124.93;105558;1280;22596;-77
2022/07/02 09:06:19;;;;;;;3.50;3.20;;;;;;;18.92;76.36;99124.74;105811;1278;29479;-77
2022/07/02 09:08:46;;;;;;;3.40;3.10;;;;;;;18.98;75.99;99129.02;105999;1280;137972;-77
2022/07/02 09:11:13;;;;;;;5.60;3.70;;;;;;;19.02;75.83;99128.35;106117;1279;22708;-77
2022/07/02 09:13:40;;;;;;;5.80;4.10;;;;;;;18.99;75.37;99125.15;105677;1280;137188;-77
2022/07/02 09:16:06;;;;;;;4.50;4.10;;;;;;;18.96;75.50;99128.32;106297;1279;22569;-77
2022/07/02 09:18:34;;;;;;;4.70;4.30;;;;;;;18.90;75.59;99131.65;105994;1280;22557;-77
2022/07/02 09:21:00;;;;;;;5.50;4.40;;;;;;;18.86;75.54;99136.27;105657;1280;138144;-77
2022/07/02 09:23:26;;;;;;;5.10;4.10;;;;;;;18.79;75.83;99132.45;106214;1280;22544;-77
2022/07/02 09:25:52;;;;;;;4.50;4.10;;;;;;;18.82;75.66;99130.73;105733;1280;137432;-77
2022/07/02 09:28:18;;;;;;;4.70;4.20;;;;;;;18.90;75.61;99132.66;105988;1280;26604;-77
2022/07/02 09:30:45;;;;;;;5.40;4.70;;;;;;;19.03;75.33;99131.77;105940;1280;26597;-76
2022/07/02 09:33:29;;;;;;;4.30;3.90;;;;;;;19.13;75.03;99130.05;105815;1280;24442;-77
2022/07/02 09:35:57;;;;;;;5.70;5.10;;;;;;;19.20;74.71;99131.49;105688;1279;22551;-76
2022/07/02 09:38:23;;;;;;;8.60;5.70;;;;;;;19.22;74.49;99127.46;106100;1280;138155;-77
2022/07/02 09:40:53;;;;;;;6.90;5.90;;;;;;;19.23;74.65;99134.08;106412;1279;22582;-78
2022/07/02 09:43:31;;;;;;;6.70;6.10;;;;;;;19.15;74.37;99129.88;106213;1280;137786;-77
2022/07/02 09:46:00;;;;;;;5.80;5.30;;;;;;;19.09;74.75;99135.65;106100;1280;25334;-78
2022/07/02 09:48:27;;;;;;;7.30;5.40;;;;;;;19.07;74.60;99136.11;106029;1280;25318;-77
2022/07/02 09:50:54;;;;;;;6.70;6.00;;;;;;;18.98;74.88;99135.33;105890;1279;137116;-76
2022/07/02 09:53:20;;;;;;;6.60;6.00;;;;;;;18.93;75.26;99137.77;105927;1280;24434;-77
2022/07/02 09:55:49;;;;;;;7.60;6.90;;;;;;;18.89;75.42;99138.12;106115;1280;138506;-78
2022/07/02 09:58:26;;;;;;;7.20;6.30;;;;;;;18.87;75.66;99142.50;105630;1280;25373;-77
2022/07/02 10:00:54;;;;;;;9.80;7.20;;;;;;;18.94;75.48;99141.41;105510;1280;137713;-78
2022/07/02 10:03:21;;;;;;;9.60;7.50;;;;;;;18.97;75.27;99149.06;105616;1280;22569;-77
2022/07/02 10:05:54;;;;;;;9.10;7.30;;;;;;;19.01;75.28;99145.45;105930;1280;22610;-78
2022/07/02 10:08:21;;;;;;;8.60;6.80;;;;;;;19.14;75.32;99144.78;106015;1280;137522;-77
2022/07/02 10:10:48;;;;;;;7.80;6.50;;;;;;;19.31;74.74;99138.27;106022;1280;22676;-77
2022/07/02 10:13:16;;;;;;;7.10;6.40;;;;;;;19.49;74.54;99143.70;105840;1280;137792;-77
2022/07/02 10:15:48;;;;;;;7.20;6.20;;;;;;;19.66;74.12;99144.21;105983;1280;25317;-76
2022/07/02 10:18:14;;;;;;;6.30;5.70;;;;;;;19.80;73.57;99140.55;106246;1278;25214;-77
2022/07/02 10:20:41;;;;;;;6.80;5.80;;;;;;;19.92;73.03;99138.51;106107;1280;137369;-76
2022/07/02 10:23:07;;;;;;;7.20;6.40;;;;;;;19.89;72.46;99138.70;107277;1277;25314;-77
2022/07/02 10:25:35;;;;;;;15.00;12.80;;;;;;;19.81;72.54;99146.29;106185;1280;137882;-77
2022/07/02 10:28:02;;;;;;;18.10;16.30;;;;;;;19.78;72.68;99147.70;106530;1277;22830;-77
2022/07/02 10:30:33;;;;;;;20.20;17.30;;;;;;;19.77;72.28;99146.16;106656;1278;22561;-76
2022/07/02 10:33:20;;;;;;;18.60;16.70;;;;;;;19.77;72.46;99145.55;106827;1277;137733;-76
2022/07/02 10:35:48;;;;;;;21.30;19.00;;;;;;;19.76;72.41;99147.16;106670;1277;25612;-76
2022/07/02 10:38:15;;;;;;;20.00;17.90;;;;;;;19.77;72.58;99148.86;106460;1277;138219;-76
2022/07/02 10:40:48;;;;;;;18.40;15.20;;;;;;;19.83;72.43;99153.58;106799;1277;22620;-76
2022/07/02 10:43:18;;;;;;;18.50;16.60;;;;;;;19.85;72.13;99156.60;106340;1277;138254;-76
2022/07/02 10:45:45;;;;;;;19.80;17.70;;;;;;;19.80;71.78;99157.52;106458;1279;22427;-76
2022/07/02 10:48:13;;;;;;;20.40;17.00;;;;;;;19.77;72.04;99162.41;106521;1280;22713;-76
2022/07/02 10:50:47;;;;;;;20.50;17.90;;;;;;;19.71;71.91;99160.48;106553;1280;138444;-78
2022/07/02 10:53:21;;;;;;;20.10;18.00;;;;;;;19.77;72.45;99165.61;106652;1280;22702;-76
2022/07/02 10:55:51;;;;;;;19.60;15.70;;;;;;;19.88;72.39;99170.79;106264;1280;138723;-76
2022/07/02 10:58:23;;;;;;;18.40;16.10;;;;;;;19.97;71.93;99172.14;105877;1280;22603;-77
2022/07/02 11:00:50;;;;;;;15.90;14.20;;;;;;;20.07;71.86;99173.98;105752;1280;137653;-77
2022/07/02 11:03:18;;;;;;;12.50;11.20;;;;;;;20.12;71.53;99172.34;106345;1280;25355;-78
2022/07/02 11:06:01;;;;;;;9.40;8.30;;;;;;;20.10;70.67;99176.95;106254;1280;24081;-78
2022/07/02 11:08:44;;;;;;;8.40;7.50;;;;;;;19.97;70.44;99180.38;105952;1280;137279;-77
2022/07/02 11:11:32;;;;;;;8.30;7.60;;;;;;;19.86;70.82;99179.81;105946;1280;24225;-79
2022/07/02 11:14:06;;;;;;;14.90;12.40;;;;;;;19.83;71.35;99178.56;105852;1280;138139;-78
2022/07/02 11:16:37;;;;;;;16.00;14.30;;;;;;;19.88;71.49;99177.80;105920;1280;22594;-77
2022/07/02 11:19:19;;;;;;;17.70;16.00;;;;;;;19.91;71.71;99182.02;105830;1279;137824;-79
2022/07/02 11:21:55;;;;;;;18.60;16.20;;;;;;;19.97;71.52;99183.54;106093;1280;25627;-78
2022/07/02 11:24:25;;;;;;;;;;;;;;;20.00;71.22;99181.85;106157;1280;22534;-77
2022/07/02 11:26:52;;;;;;;17.20;15.40;;;;;;;19.98;71.12;99182.86;105738;1280;124020;-78